Time;durP1;ratioP1;P1;durP2;ratioP2;P2;SDS_P1;SDS_P2;PMS_P1;PMS_P2;Temp;Humidity;BMP_temperature;BMP_pressure;BME280_temperature;BME280_humidity;BME280_pressure;Samples;Min_cycle;Max_cycle;Signal;HPM_P1;HPM_P2
2023/01/29 00:01:08;;;;;;;32.35;19.05;;;;;;;-1.90;100.00;103005.63;5029188;28;20033;-66
2023/01/29 00:03:34;;;;;;;30.90;17.42;;;;;;;-1.87;100.00;103002.88;5029212;28;20034;-66
2023/01/29 00:06:03;;;;;;;31.27;16.60;;;;;;;-1.86;100.00;102996.72;5029124;28;20120;-65
2023/01/29 00:08:29;;;;;;;52.22;21.30;;;;;;;-1.83;100.00;102994.03;5029178;28;20508;-65
2023/01/29 00:11:00;;;;;;;34.38;18.48;;;;;;;-1.81;100.00;102992.16;5029065;28;20037;-65
2023/01/29 00:13:25;;;;;;;31.40;17.27;;;;;;;-1.81;100.00;102979.97;5029135;28;20033;-65
2023/01/29 00:15:56;;;;;;;31.13;16.90;;;;;;;-1.80;100.00;102989.50;5028932;28;20526;-65
2023/01/29 00:18:21;;;;;;;27.75;16.67;;;;;;;-1.81;100.00;102989.56;5028924;28;20059;-66
2023/01/29 00:20:47;;;;;;;29.92;15.95;;;;;;;-1.83;100.00;102979.16;5029094;28;20060;-66
2023/01/29 00:23:12;;;;;;;36.20;17.48;;;;;;;-1.80;100.00;102972.97;5028922;28;20087;-66
2023/01/29 00:25:38;;;;;;;31.02;16.45;;;;;;;-1.81;100.00;102973.84;5028835;28;20444;-65
2023/01/29 00:28:03;;;;;;;33.15;18.55;;;;;;;-1.80;100.00;102983.44;5028920;28;20115;-67
2023/01/29 00:30:29;;;;;;;37.92;17.40;;;;;;;-1.83;100.00;102971.31;5028901;28;20045;-66
2023/01/29 00:32:54;;;;;;;31.90;18.20;;;;;;;-1.84;100.00;102963.53;5028934;28;20030;-67
2023/01/29 00:35:19;;;;;;;38.88;18.23;;;;;;;-1.88;100.00;102965.44;5028825;28;20897;-67
2023/01/29 00:37:45;;;;;;;34.08;17.50;;;;;;;-1.92;100.00;102963.84;5028748;28;20030;-67
2023/01/29 00:40:10;;;;;;;28.35;16.02;;;;;;;-1.96;100.00;102956.22;5028693;28;20607;-67
2023/01/29 00:45:20;;;;;;;32.10;17.13;;;;;;;-2.05;100.00;102946.97;5028856;28;20477;-67
2023/01/29 00:47:45;;;;;;;33.90;17.42;;;;;;;-2.08;100.00;102955.78;5028772;28;20108;-67
2023/01/29 00:50:11;;;;;;;37.60;17.85;;;;;;;-2.11;100.00;102944.59;5028657;28;20429;-67
2023/01/29 00:52:39;;;;;;;32.22;17.52;;;;;;;-2.14;100.00;102937.75;5028596;28;20477;-67
2023/01/29 00:55:06;;;;;;;30.65;19.30;;;;;;;-2.15;100.00;102943.03;5029639;28;20044;-67
2023/01/29 00:57:33;;;;;;;35.60;17.48;;;;;;;-2.20;100.00;102938.00;5032409;28;20129;-67
2023/01/29 00:59:59;;;;;;;33.83;17.90;;;;;;;-2.22;100.00;102931.97;5032305;28;20029;-67
2023/01/29 01:05:18;;;;;;;31.50;14.70;;;;;;;-2.28;100.00;102919.13;5032341;28;20092;-67
2023/01/29 01:07:47;;;;;;;31.20;17.55;;;;;;;-2.29;100.00;102922.69;5031994;28;20033;-67
2023/01/29 01:10:19;;;;;;;28.65;16.15;;;;;;;-2.29;100.00;102926.13;5032132;28;20593;-67
2023/01/29 01:12:45;;;;;;;28.02;14.50;;;;;;;-2.31;100.00;102932.34;5031817;28;20379;-66
2023/01/29 01:15:11;;;;;;;30.23;17.08;;;;;;;-2.33;100.00;102924.56;5031859;28;20128;-66
2023/01/29 01:17:36;;;;;;;33.00;17.25;;;;;;;-2.34;100.00;102922.00;5031830;28;20021;-66
2023/01/29 01:20:03;;;;;;;31.98;16.42;;;;;;;-2.35;100.00;102931.63;5031976;28;20033;-66
2023/01/29 01:22:28;;;;;;;25.48;12.65;;;;;;;-2.35;100.00;102923.78;5031981;28;20034;-67
2023/01/29 01:24:53;;;;;;;29.88;15.40;;;;;;;-2.37;100.00;102925.59;5031808;28;20886;-67
2023/01/29 01:27:19;;;;;;;30.02;15.13;;;;;;;-2.37;100.00;102929.97;5031364;28;20039;-66
2023/01/29 01:29:45;;;;;;;27.98;15.48;;;;;;;-2.39;100.00;102934.41;5031595;28;20053;-66
2023/01/29 01:32:11;;;;;;;28.77;14.13;;;;;;;-2.41;100.00;102937.09;5031564;28;20040;-65
2023/01/29 01:34:37;;;;;;;27.05;16.02;;;;;;;-2.42;100.00;102944.06;5031541;28;20442;-67
2023/01/29 01:37:02;;;;;;;33.40;17.52;;;;;;;-2.44;100.00;102937.19;5031561;28;20107;-67
2023/01/29 01:39:28;;;;;;;27.15;14.32;;;;;;;-2.41;100.00;102944.94;5031424;28;20204;-66
2023/01/29 01:41:53;;;;;;;27.85;16.13;;;;;;;-2.45;100.00;102941.56;5031511;28;20056;-66
2023/01/29 01:44:50;;;;;;;32.55;15.50;;;;;;;-2.44;100.00;102943.28;5031370;28;20037;-65
2023/01/29 01:47:19;;;;;;;31.92;16.48;;;;;;;-2.45;100.00;102931.13;5031310;28;20025;-65
2023/01/29 01:49:46;;;;;;;33.60;17.73;;;;;;;-2.44;100.00;102926.75;5031117;28;20079;-66
2023/01/29 01:52:12;;;;;;;30.00;16.83;;;;;;;-2.43;100.00;102937.16;5031324;28;20034;-65
2023/01/29 01:54:38;;;;;;;30.73;16.63;;;;;;;-2.41;100.00;102947.56;5031694;28;20033;-65
2023/01/29 01:57:14;;;;;;;31.42;17.60;;;;;;;-2.40;100.00;102943.16;5031086;28;20029;-65
2023/01/29 01:59:44;;;;;;;29.83;16.25;;;;;;;-2.37;100.00;102949.09;5031353;28;20112;-65
2023/01/29 02:10:31;;;;;;;30.20;14.30;;;;;;;-2.28;100.00;102938.31;5031302;28;20048;-67
2023/01/29 02:12:56;;;;;;;30.67;14.80;;;;;;;-2.25;100.00;102948.63;5030936;28;20072;-66
2023/01/29 02:15:22;;;;;;;28.23;13.38;;;;;;;-2.24;100.00;102947.72;5030699;28;20061;-67
2023/01/29 02:17:47;;;;;;;30.30;15.27;;;;;;;-2.19;100.00;102954.53;5030779;28;20483;-66
2023/01/29 02:20:12;;;;;;;27.98;15.40;;;;;;;-2.16;100.00;102955.25;5030691;28;20037;-66
2023/01/29 02:23:01;;;;;;;28.10;14.48;;;;;;;-2.10;100.00;102956.75;5030674;28;20036;-66
2023/01/29 02:26:08;;;;;;;29.98;15.93;;;;;;;-2.07;100.00;102949.66;5030628;28;20052;-67
2023/01/29 02:29:21;;;;;;;25.98;14.15;;;;;;;-2.03;100.00;102953.81;5030514;28;20506;-67
2023/01/29 02:32:10;;;;;;;31.30;15.93;;;;;;;-2.03;100.00;102952.97;5030330;28;20098;-67
2023/01/29 02:37:26;;;;;;;27.58;13.50;;;;;;;-1.91;100.00;102957.72;5030490;28;20075;-67
2023/01/29 02:40:04;;;;;;;31.30;15.15;;;;;;;-1.87;100.00;102948.81;5030331;28;20108;-67
2023/01/29 02:42:46;;;;;;;29.15;12.82;;;;;;;-1.86;100.00;102945.31;5030463;28;20417;-67
2023/01/29 02:45:31;;;;;;;28.92;16.33;;;;;;;-1.79;100.00;102945.88;5030143;28;20044;-67
2023/01/29 02:47:59;;;;;;;29.52;16.38;;;;;;;-1.74;100.00;102943.06;5030168;28;20521;-67
2023/01/29 02:50:42;;;;;;;26.40;13.60;;;;;;;-1.73;100.00;102947.38;5030253;28;20429;-67
2023/01/29 02:53:36;;;;;;;28.92;14.43;;;;;;;-1.68;100.00;102945.44;5030112;28;20037;-67
2023/01/29 02:56:07;;;;;;;30.50;15.13;;;;;;;-1.65;100.00;102955.75;5022492;28;20057;-67
2023/01/29 02:58:53;;;;;;;33.83;16.90;;;;;;;-1.63;100.00;102941.69;5029860;28;20064;-67
2023/01/29 03:01:29;;;;;;;31.02;14.63;;;;;;;-1.60;100.00;102943.31;5029694;28;20036;-67
2023/01/29 03:04:00;;;;;;;26.30;12.63;;;;;;;-1.64;100.00;102942.63;5029830;28;20115;-67
2023/01/29 03:06:36;;;;;;;32.15;14.90;;;;;;;-1.56;100.00;102947.53;5029950;28;20025;-67
2023/01/29 03:09:06;;;;;;;29.63;15.02;;;;;;;-1.58;100.00;102942.34;5029911;28;20116;-67
2023/01/29 03:11:39;;;;;;;27.35;13.95;;;;;;;-1.56;100.00;102943.13;5029689;28;20029;-67
2023/01/29 03:14:12;;;;;;;27.58;13.15;;;;;;;-1.53;100.00;102930.84;5029633;28;20378;-67
2023/01/29 03:16:43;;;;;;;31.52;14.40;;;;;;;-1.52;100.00;102937.78;5029799;28;20041;-67
2023/01/29 03:19:11;;;;;;;;;;;;;;;-1.48;100.00;102939.34;5029679;28;20473;-67
2023/01/29 03:21:52;;;;;;;34.42;15.55;;;;;;;-1.48;100.00;102937.56;5029735;28;19920;-67
2023/01/29 03:33:22;;;;;;;32.13;17.70;;;;;;;-1.44;100.00;102936.53;5029485;28;20423;-66
2023/01/29 03:36:01;;;;;;;27.83;14.32;;;;;;;-1.38;100.00;102944.13;5029895;28;20025;-65
2023/01/29 03:38:28;;;;;;;32.17;16.25;;;;;;;-1.36;100.00;102938.81;5029472;28;20090;-65
2023/01/29 03:41:21;;;;;;;30.95;15.43;;;;;;;-1.34;100.00;102940.47;5029223;28;20057;-65
2023/01/29 03:43:51;;;;;;;29.80;16.27;;;;;;;-1.33;100.00;102931.69;5029451;28;20029;-65
2023/01/29 03:46:36;;;;;;;30.52;16.45;;;;;;;-1.30;100.00;102932.47;5029505;28;20036;-67
2023/01/29 03:49:29;;;;;;;29.25;14.95;;;;;;;-1.33;100.00;102918.59;5029439;28;20435;-66
2023/01/29 03:52:05;;;;;;;32.78;17.58;;;;;;;-1.30;100.00;102920.22;5029508;28;20037;-65
2023/01/29 03:54:49;;;;;;;32.60;16.05;;;;;;;-1.28;100.00;102910.53;5029116;28;20420;-65
2023/01/29 03:57:49;;;;;;;32.95;15.20;;;;;;;-1.26;100.00;102915.69;5029288;28;20131;-65
2023/01/29 04:00:20;;;;;;;32.05;15.90;;;;;;;-1.25;100.00;102915.63;5026048;28;20483;-65
2023/01/29 04:03:05;;;;;;;32.45;15.85;;;;;;;-1.23;100.00;102911.19;5029321;28;20028;-65
2023/01/29 04:05:42;;;;;;;30.15;15.30;;;;;;;-1.25;100.00;102909.56;5029161;28;20032;-65
2023/01/29 04:08:13;;;;;;;31.02;15.73;;;;;;;-1.22;100.00;102898.94;5029115;28;20025;-65
2023/01/29 04:10:42;;;;;;;30.50;14.55;;;;;;;-1.21;100.00;102901.47;5029507;28;20030;-65
2023/01/29 04:13:11;;;;;;;30.92;14.40;;;;;;;-1.22;100.00;102889.31;5029061;28;20041;-65
2023/01/29 04:15:53;;;;;;;29.60;15.43;;;;;;;-1.22;100.00;102889.31;5029081;28;20025;-65
2023/01/29 04:18:18;;;;;;;27.70;13.73;;;;;;;-1.17;100.00;102894.34;5028949;28;20029;-65
2023/01/29 04:20:44;;;;;;;30.75;16.90;;;;;;;-1.18;100.00;102890.88;5029023;28;20028;-65
2023/01/29 04:23:24;;;;;;;33.67;16.50;;;;;;;-1.16;100.00;102896.03;5029208;28;20094;-65
2023/01/29 04:26:07;;;;;;;36.08;17.30;;;;;;;-1.15;100.00;102903.00;5028963;28;20113;-65
2023/01/29 04:29:15;;;;;;;28.27;14.00;;;;;;;-1.15;100.00;102898.59;5029015;28;20049;-65
2023/01/29 04:31:46;;;;;;;31.05;15.73;;;;;;;-1.12;100.00;102887.13;5032610;28;20651;-65
2023/01/29 04:34:18;;;;;;;30.55;15.50;;;;;;;-1.11;100.00;102887.03;5032681;28;20477;-66
2023/01/29 04:36:50;;;;;;;29.27;15.20;;;;;;;-1.09;100.00;102881.75;5032592;28;20029;-66
2023/01/29 04:39:24;;;;;;;30.33;16.33;;;;;;;-1.06;100.00;102876.38;5032594;28;20029;-66
2023/01/29 04:42:14;;;;;;;30.98;16.42;;;;;;;-1.04;100.00;102871.06;5032586;28;20133;-66
2023/01/29 04:44:48;;;;;;;32.83;16.60;;;;;;;-1.05;100.00;102859.72;5031869;28;20033;-66
2023/01/29 04:47:28;;;;;;;30.20;14.20;;;;;;;-1.03;100.00;102865.75;5032553;28;20473;-66
2023/01/29 04:50:17;;;;;;;32.58;17.50;;;;;;;-1.04;100.00;102856.19;5032371;28;20497;-67
2023/01/29 04:52:50;;;;;;;34.47;17.52;;;;;;;-1.06;100.00;102844.09;5032388;28;20031;-67
2023/01/29 04:55:34;;;;;;;31.70;17.23;;;;;;;-1.04;100.00;102837.03;5032313;28;20025;-67
2023/01/29 04:58:21;;;;;;;28.48;13.43;;;;;;;-1.03;100.00;102839.56;5032357;28;20051;-67
2023/01/29 05:00:49;;;;;;;30.45;15.40;;;;;;;-1.03;100.00;102836.09;5032164;28;20056;-67
2023/01/29 05:03:15;;;;;;;35.22;17.38;;;;;;;-1.00;100.00;102835.94;5032347;28;20052;-67
2023/01/29 05:05:44;;;;;;;33.08;17.35;;;;;;;-1.02;100.00;102822.06;5032116;28;20059;-67
2023/01/29 05:08:14;;;;;;;32.17;15.82;;;;;;;-0.98;100.00;102826.25;5032169;28;20033;-67
2023/01/29 05:10:41;;;;;;;35.53;17.33;;;;;;;-0.96;100.00;102840.97;5032002;28;20033;-67
2023/01/29 05:13:12;;;;;;;30.38;15.23;;;;;;;-0.93;100.00;102840.81;5031923;28;20026;-67
2023/01/29 05:15:52;;;;;;;33.55;17.95;;;;;;;-0.90;100.00;102843.28;5031961;28;20029;-67
2023/01/29 05:18:18;;;;;;;34.05;16.33;;;;;;;-0.87;100.00;102831.81;5031966;28;20033;-67
2023/01/29 05:20:45;;;;;;;31.45;15.15;;;;;;;-0.86;100.00;102820.44;5031993;28;20381;-67
2023/01/29 05:23:18;;;;;;;31.45;16.15;;;;;;;-0.81;100.00;102826.31;5031850;28;20045;-67
2023/01/29 05:25:45;;;;;;;32.03;16.27;;;;;;;-0.78;100.00;102820.06;5031718;28;20021;-67
2023/01/29 05:28:15;;;;;;;34.45;19.13;;;;;;;-0.76;100.00;102816.47;5031672;28;20029;-67
2023/01/29 05:30:42;;;;;;;37.47;18.13;;;;;;;-0.74;100.00;102811.97;5031515;28;20041;-67
2023/01/29 05:33:17;;;;;;;32.58;16.75;;;;;;;-0.72;100.00;102814.53;5031661;28;20127;-67
2023/01/29 05:35:42;;;;;;;35.83;16.77;;;;;;;-0.70;100.00;102810.06;5031529;28;20120;-67
2023/01/29 05:38:07;;;;;;;33.10;19.33;;;;;;;-0.67;100.00;102815.16;5031466;28;20057;-67
2023/01/29 05:40:33;;;;;;;33.75;17.27;;;;;;;-0.65;100.00;102815.94;5030742;28;20114;-67
2023/01/29 05:42:58;;;;;;;37.95;19.00;;;;;;;-0.63;100.00;102814.06;5031571;28;20037;-67
2023/01/29 05:45:24;;;;;;;36.15;18.92;;;;;;;-0.61;100.00;102827.94;5031471;28;20034;-64
2023/01/29 05:47:49;;;;;;;35.25;19.55;;;;;;;-0.58;100.00;102826.94;5031413;28;20035;-64
2023/01/29 05:50:15;;;;;;;32.20;19.65;;;;;;;-0.59;100.00;102820.88;5031315;28;20053;-64
2023/01/29 05:52:41;;;;;;;38.03;19.02;;;;;;;-0.59;100.00;102820.88;5013454;28;20040;-64
2023/01/29 05:55:08;;;;;;;38.63;18.38;;;;;;;-0.56;100.00;102818.09;5031135;28;20037;-64
2023/01/29 05:57:33;;;;;;;38.45;19.45;;;;;;;-0.55;100.00;102827.66;5031183;28;20606;-64
2023/01/29 05:59:59;;;;;;;35.25;18.90;;;;;;;-0.53;100.00;102831.03;5031515;28;20124;-64
2023/01/29 06:02:24;;;;;;;33.25;18.23;;;;;;;-0.52;100.00;102838.00;5031175;28;20148;-64
2023/01/29 06:04:51;;;;;;;35.05;17.65;;;;;;;-0.50;100.00;102833.53;5030961;28;20516;-64
2023/01/29 06:07:17;;;;;;;37.28;18.33;;;;;;;-0.45;100.00;102843.75;5030804;28;20025;-64
2023/01/29 06:09:43;;;;;;;29.45;16.90;;;;;;;-0.44;100.00;102842.84;5031001;28;20063;-64
2023/01/29 06:12:08;;;;;;;35.20;18.85;;;;;;;-0.42;100.00;102840.16;5030969;28;20033;-64
2023/01/29 06:14:33;;;;;;;32.60;17.83;;;;;;;-0.41;100.00;102849.72;5031086;28;20115;-64
2023/01/29 06:16:59;;;;;;;34.53;20.10;;;;;;;-0.39;100.00;102860.97;5030992;28;20047;-64
2023/01/29 06:19:24;;;;;;;35.00;20.48;;;;;;;-0.38;100.00;102862.66;5030733;28;20116;-64
2023/01/29 06:21:49;;;;;;;36.90;17.67;;;;;;;-0.36;100.00;102860.84;5030592;28;20066;-64
2023/01/29 06:24:15;;;;;;;34.88;19.15;;;;;;;-0.35;100.00;102863.34;5030641;28;20028;-64
2023/01/29 06:26:40;;;;;;;32.88;18.17;;;;;;;-0.34;100.00;102846.72;5030524;28;20064;-64
2023/01/29 06:29:06;;;;;;;39.45;19.88;;;;;;;-0.33;100.00;102835.31;5030765;28;20555;-64
2023/01/29 06:31:31;;;;;;;37.20;21.13;;;;;;;-0.34;100.00;102828.38;5030610;28;20060;-64
2023/01/29 06:33:56;;;;;;;37.30;19.10;;;;;;;-0.35;100.00;102816.16;5030461;28;20482;-65
2023/01/29 06:36:22;;;;;;;37.85;18.90;;;;;;;-0.31;100.00;102809.03;5030481;28;20040;-64
2023/01/29 06:38:47;;;;;;;35.63;20.55;;;;;;;-0.31;100.00;102809.88;5030410;28;20052;-64
2023/01/29 06:41:16;;;;;;;38.30;16.85;;;;;;;-0.30;100.00;102813.31;5030075;28;20076;-64
2023/01/29 06:43:46;;;;;;;30.77;17.38;;;;;;;-0.29;100.00;102817.63;5030335;28;20500;-64
2023/01/29 06:46:12;;;;;;;36.47;20.83;;;;;;;-0.28;100.00;102820.19;5030161;28;20504;-65
2023/01/29 06:48:38;;;;;;;32.08;18.45;;;;;;;-0.26;100.00;102820.13;5030203;28;20017;-64
2023/01/29 06:51:05;;;;;;;38.10;19.45;;;;;;;-0.26;100.00;102809.63;5030502;28;20038;-64
2023/01/29 06:53:31;;;;;;;39.88;18.55;;;;;;;-0.27;100.00;102808.75;5029210;28;20033;-64
2023/01/29 06:55:57;;;;;;;35.00;17.85;;;;;;;-0.27;100.00;102813.16;5030162;28;20108;-64
2023/01/29 06:58:22;;;;;;;33.95;18.58;;;;;;;-0.26;100.00;102809.63;5030320;28;20761;-64
2023/01/29 07:00:47;;;;;;;32.05;17.25;;;;;;;-0.24;100.00;102807.75;5029964;28;20040;-64
2023/01/29 07:03:13;;;;;;;33.75;17.15;;;;;;;-0.22;100.00;102813.78;5029844;28;20037;-64
2023/01/29 07:05:38;;;;;;;33.42;17.52;;;;;;;-0.20;100.00;102800.59;5029925;28;20067;-64
2023/01/29 07:08:04;;;;;;;37.75;21.85;;;;;;;-0.20;100.00;102809.31;5029863;28;20055;-64
2023/01/29 07:10:30;;;;;;;33.92;16.77;;;;;;;-0.19;100.00;102794.44;5029762;28;20037;-64
2023/01/29 07:12:58;;;;;;;34.30;19.00;;;;;;;-0.19;100.00;102804.91;5029779;28;20358;-64
2023/01/29 07:15:23;;;;;;;38.47;20.13;;;;;;;-0.17;100.00;102814.41;5029582;28;20055;-64
2023/01/29 07:17:59;;;;;;;37.17;19.98;;;;;;;-0.15;100.00;102820.41;5029687;28;20120;-64
2023/01/29 07:20:27;;;;;;;34.42;19.05;;;;;;;-0.15;100.00;102809.09;5029752;28;20029;-64
2023/01/29 07:22:52;;;;;;;38.72;19.70;;;;;;;-0.13;100.00;102813.34;5029668;28;20036;-64
2023/01/29 07:25:18;;;;;;;37.90;20.92;;;;;;;-0.10;100.00;102821.03;5029671;28;20021;-64
2023/01/29 07:27:44;;;;;;;31.38;17.88;;;;;;;-0.10;100.00;102818.41;5029580;28;20108;-64
2023/01/29 07:30:10;;;;;;;36.63;21.70;;;;;;;-0.10;100.00;102813.16;5029599;28;20108;-64
2023/01/29 07:32:35;;;;;;;34.13;18.85;;;;;;;-0.08;100.00;102810.44;5029393;28;20029;-64
2023/01/29 07:35:00;;;;;;;37.38;20.73;;;;;;;-0.07;100.00;102799.91;5029324;28;20040;-68
2023/01/29 07:37:26;;;;;;;37.88;21.45;;;;;;;-0.06;100.00;102801.56;5029582;28;20026;-68
2023/01/29 07:39:51;;;;;;;34.60;18.48;;;;;;;-0.06;100.00;102801.56;5029396;28;20431;-68
2023/01/29 07:42:16;;;;;;;40.88;24.42;;;;;;;-0.04;100.00;102802.34;5029199;28;20066;-68
2023/01/29 07:44:42;;;;;;;35.65;19.35;;;;;;;-0.03;100.00;102808.44;5029330;28;20030;-68
2023/01/29 07:47:07;;;;;;;36.70;17.45;;;;;;;-0.02;100.00;102799.66;5029251;28;20079;-68
2023/01/29 07:49:32;;;;;;;35.70;21.45;;;;;;;0.01;100.00;102812.63;5029253;28;20021;-68
2023/01/29 07:51:58;;;;;;;39.60;21.75;;;;;;;0.01;100.00;102811.78;5029150;28;20021;-68
2023/01/29 07:54:23;;;;;;;36.38;21.05;;;;;;;0.02;100.00;102808.22;5029290;28;20030;-68
2023/01/29 07:56:48;;;;;;;31.30;18.30;;;;;;;0.04;100.00;102808.97;5029276;28;20532;-68
2023/01/29 07:59:14;;;;;;;36.03;19.38;;;;;;;0.04;100.00;102803.75;5029638;28;20044;-68
2023/01/29 08:01:39;;;;;;;36.17;20.80;;;;;;;0.05;100.00;102805.41;5029113;28;20029;-68
2023/01/29 08:04:04;;;;;;;40.10;20.27;;;;;;;0.04;100.00;102796.72;5030115;28;20040;-68
2023/01/29 08:06:30;;;;;;;36.50;20.73;;;;;;;0.06;100.00;102794.88;5033206;28;20031;-68
2023/01/29 08:08:56;;;;;;;35.03;18.10;;;;;;;0.08;100.00;102794.75;5033234;28;20053;-68
2023/01/29 08:11:21;;;;;;;31.52;18.55;;;;;;;0.08;100.00;102800.88;5033219;28;20029;-68
2023/01/29 08:13:47;;;;;;;37.63;20.60;;;;;;;0.10;100.00;102804.25;5033193;28;20055;-68
2023/01/29 08:16:12;;;;;;;34.40;19.00;;;;;;;0.10;100.00;102806.03;5015075;28;20100;-68
2023/01/29 08:18:38;;;;;;;33.97;16.95;;;;;;;0.12;100.00;102797.16;5033143;28;20087;-68
2023/01/29 08:21:03;;;;;;;36.08;20.38;;;;;;;0.13;100.00;102798.88;5033104;28;20029;-68
2023/01/29 08:23:29;;;;;;;37.85;22.75;;;;;;;0.12;100.00;102791.91;5032905;28;20029;-68
2023/01/29 08:25:54;;;;;;;37.50;20.73;;;;;;;0.15;100.00;102791.75;5032866;28;20076;-68
2023/01/29 08:28:20;;;;;;;38.05;21.83;;;;;;;0.18;100.00;102782.84;5032831;28;20116;-68
2023/01/29 08:30:45;;;;;;;34.30;20.80;;;;;;;0.17;100.00;102771.53;5032776;28;20389;-69
2023/01/29 08:33:11;;;;;;;38.47;21.67;;;;;;;0.19;100.00;102771.47;5031997;28;20036;-69
2023/01/29 08:35:36;;;;;;;36.47;20.40;;;;;;;0.17;100.00;102768.91;5032859;28;20033;-69
2023/01/29 08:38:03;;;;;;;37.25;20.17;;;;;;;0.21;100.00;102766.97;5032909;28;20028;-68
2023/01/29 08:40:34;;;;;;;36.30;18.58;;;;;;;0.22;100.00;102766.88;5032850;28;20037;-68
2023/01/29 08:43:04;;;;;;;35.33;20.02;;;;;;;0.21;100.00;102754.69;5032628;28;20057;-68
2023/01/29 08:45:31;;;;;;;33.20;20.30;;;;;;;0.26;100.00;102754.44;5032624;28;20485;-68
2023/01/29 08:47:57;;;;;;;38.13;20.13;;;;;;;0.29;100.00;102762.16;5032413;28;20029;-68
2023/01/29 08:50:23;;;;;;;34.83;19.90;;;;;;;0.33;100.00;102763.69;5032443;28;20526;-68
2023/01/29 08:52:48;;;;;;;34.97;20.02;;;;;;;0.36;100.00;102768.75;5032349;28;20247;-68
2023/01/29 08:55:13;;;;;;;35.60;19.00;;;;;;;0.40;100.00;102758.97;5032246;28;20495;-68
2023/01/29 08:57:39;;;;;;;35.25;19.35;;;;;;;0.45;100.00;102764.81;5032630;28;20041;-67
2023/01/29 09:00:06;;;;;;;35.55;21.83;;;;;;;0.46;100.00;102756.00;5032179;28;20040;-67
2023/01/29 09:02:32;;;;;;;32.97;19.10;;;;;;;0.52;100.00;102766.16;5032012;28;20033;-67
2023/01/29 09:04:57;;;;;;;33.75;18.80;;;;;;;0.56;100.00;102745.84;5032159;28;20496;-67
2023/01/29 09:07:22;;;;;;;35.22;17.45;;;;;;;0.58;100.00;102747.44;5032158;28;20029;-70
2023/01/29 09:09:48;;;;;;;36.25;18.92;;;;;;;0.63;100.00;102744.59;5031916;28;20029;-68
2023/01/29 09:12:13;;;;;;;35.40;17.33;;;;;;;0.65;100.00;102753.19;5031894;28;20030;-68
2023/01/29 09:14:39;;;;;;;32.15;20.15;;;;;;;0.69;100.00;102748.63;5031873;28;20498;-68
2023/01/29 09:17:04;;;;;;;36.22;20.45;;;;;;;0.67;100.00;102740.84;5031020;28;20033;-68
2023/01/29 09:19:29;;;;;;;61.47;21.98;;;;;;;0.73;100.00;102739.63;5014261;28;20060;-68
2023/01/29 09:21:55;;;;;;;33.70;20.70;;;;;;;0.75;100.00;102738.63;5031880;28;20481;-68
2023/01/29 09:24:20;;;;;;;36.05;19.95;;;;;;;0.73;100.00;102737.84;5031686;28;20481;-67
2023/01/29 09:26:46;;;;;;;32.28;19.00;;;;;;;0.79;100.00;102737.53;5014078;28;20037;-67
2023/01/29 09:29:11;;;;;;;34.55;18.33;;;;;;;0.85;100.00;102738.97;5031643;28;20385;-67
2023/01/29 09:31:36;;;;;;;33.47;16.73;;;;;;;0.88;100.00;102742.25;5031918;28;20518;-64
2023/01/29 09:34:02;;;;;;;34.95;18.83;;;;;;;0.92;100.00;102739.44;5014040;28;20033;-64
2023/01/29 09:36:27;;;;;;;32.63;18.50;;;;;;;0.93;100.00;102738.53;5031548;28;20452;-64
2023/01/29 09:38:52;;;;;;;35.70;19.92;;;;;;;0.94;100.00;102738.44;5031572;28;20103;-65
2023/01/29 09:41:21;;;;;;;31.23;18.40;;;;;;;0.98;100.00;102741.75;5031376;28;20061;-64
2023/01/29 09:43:59;;;;;;;33.30;17.08;;;;;;;0.98;100.00;102750.47;5031378;28;20155;-65
2023/01/29 09:46:39;;;;;;;35.25;17.88;;;;;;;1.00;100.00;102747.75;5031602;28;20100;-64
2023/01/29 09:49:22;;;;;;;31.10;17.30;;;;;;;1.03;100.00;102748.44;5030861;28;20025;-64
2023/01/29 09:51:53;;;;;;;28.27;16.05;;;;;;;1.05;100.00;102746.56;5031255;28;20064;-64
2023/01/29 09:54:27;;;;;;;33.38;19.38;;;;;;;1.09;100.00;102734.09;5031109;28;20113;-64
2023/01/29 09:56:55;;;;;;;33.78;19.27;;;;;;;1.12;100.00;102735.69;5031169;28;20029;-64
2023/01/29 09:59:23;;;;;;;40.75;20.88;;;;;;;1.14;100.00;102736.47;5031168;28;20029;-64
2023/01/29 10:02:10;;;;;;;30.60;16.90;;;;;;;1.17;100.00;102739.75;5031562;28;20036;-64
2023/01/29 10:05:13;;;;;;;29.33;14.43;;;;;;;1.21;100.00;102741.28;5031031;28;20029;-64
2023/01/29 10:07:54;;;;;;;34.45;17.35;;;;;;;1.26;100.00;102746.28;4950579;29;20035;-64
2023/01/29 10:10:29;;;;;;;32.28;19.05;;;;;;;1.31;100.00;102742.44;5022450;28;20488;-64
2023/01/29 10:13:17;;;;;;;28.42;17.67;;;;;;;1.33;100.00;102742.31;5030820;28;20033;-64
2023/01/29 10:15:48;;;;;;;31.40;17.17;;;;;;;1.37;100.00;102746.47;5030619;28;20464;-64
2023/01/29 10:18:19;;;;;;;32.72;17.88;;;;;;;1.41;100.00;102736.63;5030884;28;20028;-64
2023/01/29 10:21:03;;;;;;;32.92;19.52;;;;;;;1.44;100.00;102741.69;5030652;28;20473;-64
2023/01/29 10:24:16;;;;;;;29.50;15.70;;;;;;;1.47;100.00;102739.75;5030401;28;20435;-64
2023/01/29 10:26:41;;;;;;;32.95;16.50;;;;;;;1.50;100.00;102733.47;5023327;28;20049;-64
2023/01/29 10:29:07;;;;;;;30.27;17.55;;;;;;;1.49;100.00;102743.16;5030576;28;20025;-64
2023/01/29 10:31:38;;;;;;;26.08;16.20;;;;;;;1.53;100.00;102735.91;5030542;28;20029;-64
2023/01/29 10:34:20;;;;;;;28.88;16.23;;;;;;;1.59;100.00;102740.78;5030427;28;20033;-64
2023/01/29 10:36:48;;;;;;;29.60;17.83;;;;;;;1.63;100.00;102741.47;5030437;28;20029;-64
2023/01/29 10:39:21;;;;;;;27.13;15.43;;;;;;;1.66;99.75;102738.66;5030387;28;20501;-64
2023/01/29 10:41:54;;;;;;;28.33;16.23;;;;;;;1.68;99.56;102742.03;5030130;28;20060;-64
2023/01/29 10:44:44;;;;;;;29.02;16.65;;;;;;;1.71;99.53;102739.22;5030284;28;20495;-64
2023/01/29 10:47:20;;;;;;;27.48;15.82;;;;;;;1.72;99.17;102738.28;5030484;28;20033;-64
2023/01/29 10:50:00;;;;;;;33.10;15.95;;;;;;;1.74;98.13;102731.16;5030125;28;20184;-64
2023/01/29 10:52:48;;;;;;;29.33;16.63;;;;;;;1.78;97.88;102732.63;5012453;28;20421;-64
2023/01/29 10:55:52;;;;;;;29.45;14.60;;;;;;;1.84;98.58;102724.41;5029989;28;20488;-64
2023/01/29 10:58:59;;;;;;;27.65;15.13;;;;;;;1.86;97.30;102724.28;4998912;28;20041;-64
2023/01/29 11:01:25;;;;;;;27.42;15.48;;;;;;;1.90;97.72;102713.47;4986005;28;20045;-64
2023/01/29 11:04:05;;;;;;;28.95;15.88;;;;;;;1.96;97.38;102707.00;5029919;28;20033;-64
2023/01/29 11:06:35;;;;;;;27.35;15.13;;;;;;;1.98;97.04;102694.59;5029783;28;20112;-64
2023/01/29 11:09:31;;;;;;;27.65;15.30;;;;;;;2.08;97.94;102677.28;5029795;28;20037;-64
2023/01/29 11:11:59;;;;;;;27.92;16.35;;;;;;;2.17;96.53;102683.75;5025232;28;20060;-64
2023/01/29 11:14:30;;;;;;;25.83;15.10;;;;;;;2.24;96.59;102676.34;5025189;28;20480;-64
2023/01/29 11:16:55;;;;;;;24.48;13.60;;;;;;;2.29;95.54;102675.09;5024791;28;20035;-64
2023/01/29 11:19:37;;;;;;;23.55;14.55;;;;;;;2.33;95.58;102665.22;5024211;28;20407;-65
2023/01/29 11:22:03;;;;;;;24.70;13.55;;;;;;;2.35;95.14;102658.91;5024936;28;20029;-63
2023/01/29 11:24:29;;;;;;;25.90;15.18;;;;;;;2.39;93.75;102662.19;5025016;28;20503;-64
2023/01/29 11:26:57;;;;;;;25.58;14.10;;;;;;;2.45;93.88;102658.31;5025273;28;20069;-63
2023/01/29 11:29:26;;;;;;;25.02;13.23;;;;;;;2.51;94.21;102644.75;5025507;28;20368;-65
2023/01/29 11:31:52;;;;;;;27.05;14.75;;;;;;;2.58;94.27;102644.25;5023979;28;20030;-65
2023/01/29 11:34:21;;;;;;;27.05;14.73;;;;;;;2.60;93.45;102645.00;5024708;28;20361;-65
2023/01/29 11:37:14;;;;;;;25.23;14.02;;;;;;;2.62;93.44;102637.84;5025177;28;20101;-65
2023/01/29 11:39:44;;;;;;;27.70;14.38;;;;;;;2.67;92.42;102627.00;5024693;28;20040;-65
2023/01/29 11:42:19;;;;;;;24.10;13.32;;;;;;;2.74;92.79;102625.66;5023860;28;20057;-64
2023/01/29 11:44:44;;;;;;;23.70;13.38;;;;;;;2.80;93.00;102621.75;5024375;28;20033;-65
2023/01/29 11:47:26;;;;;;;24.75;12.75;;;;;;;2.86;91.72;102624.00;5025538;28;20040;-64